sensor_id;sensor_type;location;lat;lon;timestamp;P1;durP1;ratioP1;P2;durP2;ratioP2
11854;SDS011;5987;53.140;8.904;2023-05-10T00:02:38;4.03;;;2.10;;
11854;SDS011;5987;53.140;8.904;2023-05-10T00:05:42;3.00;;;1.87;;
11854;SDS011;5987;53.140;8.904;2023-05-10T00:08:47;2.90;;;2.10;;
11854;SDS011;5987;53.140;8.904;2023-05-10T00:11:50;6.43;;;2.40;;
11854;SDS011;5987;53.140;8.904;2023-05-10T00:14:54;7.03;;;2.23;;
11854;SDS011;5987;53.140;8.904;2023-05-10T00:17:57;4.17;;;1.90;;
11854;SDS011;5987;53.140;8.904;2023-05-10T00:21:01;5.40;;;2.17;;
11854;SDS011;5987;53.140;8.904;2023-05-10T00:24:06;5.50;;;2.47;;
11854;SDS011;5987;53.140;8.904;2023-05-10T00:27:10;4.83;;;2.60;;
11854;SDS011;5987;53.140;8.904;2023-05-10T00:30:13;9.60;;;2.60;;
11854;SDS011;5987;53.140;8.904;2023-05-10T00:33:17;4.23;;;2.47;;
11854;SDS011;5987;53.140;8.904;2023-05-10T00:36:21;5.13;;;2.40;;
11854;SDS011;5987;53.140;8.904;2023-05-10T00:39:26;4.07;;;2.50;;
11854;SDS011;5987;53.140;8.904;2023-05-10T00:42:30;3.40;;;2.50;;
11854;SDS011;5987;53.140;8.904;2023-05-10T00:45:33;6.20;;;1.80;;
11854;SDS011;5987;53.140;8.904;2023-05-10T00:48:41;7.90;;;2.57;;
11854;SDS011;5987;53.140;8.904;2023-05-10T00:51:47;4.50;;;3.03;;
11854;SDS011;5987;53.140;8.904;2023-05-10T00:54:52;5.23;;;2.37;;
11854;SDS011;5987;53.140;8.904;2023-05-10T00:57:57;4.43;;;2.27;;
11854;SDS011;5987;53.140;8.904;2023-05-10T01:01:00;3.37;;;2.10;;
11854;SDS011;5987;53.140;8.904;2023-05-10T01:04:05;2.53;;;1.80;;
11854;SDS011;5987;53.140;8.904;2023-05-10T01:07:10;4.83;;;2.00;;
11854;SDS011;5987;53.140;8.904;2023-05-10T01:10:15;2.33;;;1.97;;
11854;SDS011;5987;53.140;8.904;2023-05-10T01:13:23;2.90;;;2.10;;
11854;SDS011;5987;53.140;8.904;2023-05-10T01:16:35;2.60;;;1.73;;
11854;SDS011;5987;53.140;8.904;2023-05-10T01:19:42;6.03;;;2.47;;
11854;SDS011;5987;53.140;8.904;2023-05-10T01:30:35;4.13;;;1.93;;
11854;SDS011;5987;53.140;8.904;2023-05-10T01:34:34;2.83;;;1.90;;
11854;SDS011;5987;53.140;8.904;2023-05-10T01:37:46;5.03;;;2.17;;
11854;SDS011;5987;53.140;8.904;2023-05-10T01:41:05;4.87;;;1.90;;
11854;SDS011;5987;53.140;8.904;2023-05-10T01:44:17;3.17;;;2.10;;
11854;SDS011;5987;53.140;8.904;2023-05-10T01:47:31;5.80;;;2.57;;
11854;SDS011;5987;53.140;8.904;2023-05-10T01:50:43;3.73;;;2.10;;
11854;SDS011;5987;53.140;8.904;2023-05-10T01:53:51;3.60;;;2.00;;
11854;SDS011;5987;53.140;8.904;2023-05-10T01:57:02;2.40;;;1.93;;
11854;SDS011;5987;53.140;8.904;2023-05-10T02:00:10;3.53;;;2.43;;
11854;SDS011;5987;53.140;8.904;2023-05-10T02:03:18;2.53;;;2.33;;
11854;SDS011;5987;53.140;8.904;2023-05-10T02:06:28;4.03;;;2.53;;
11854;SDS011;5987;53.140;8.904;2023-05-10T02:09:33;2.97;;;2.57;;
11854;SDS011;5987;53.140;8.904;2023-05-10T02:12:41;4.67;;;2.13;;
11854;SDS011;5987;53.140;8.904;2023-05-10T02:15:48;5.00;;;2.13;;
11854;SDS011;5987;53.140;8.904;2023-05-10T02:18:55;3.83;;;2.53;;
11854;SDS011;5987;53.140;8.904;2023-05-10T02:22:05;2.83;;;2.20;;
11854;SDS011;5987;53.140;8.904;2023-05-10T02:25:12;3.23;;;2.40;;
11854;SDS011;5987;53.140;8.904;2023-05-10T02:28:19;4.40;;;2.10;;
11854;SDS011;5987;53.140;8.904;2023-05-10T02:31:26;7.47;;;3.23;;
11854;SDS011;5987;53.140;8.904;2023-05-10T02:34:30;4.43;;;2.40;;
11854;SDS011;5987;53.140;8.904;2023-05-10T02:37:36;3.60;;;2.20;;
11854;SDS011;5987;53.140;8.904;2023-05-10T02:40:41;3.63;;;2.07;;
11854;SDS011;5987;53.140;8.904;2023-05-10T02:43:45;4.20;;;2.73;;
11854;SDS011;5987;53.140;8.904;2023-05-10T02:46:53;3.30;;;2.33;;
11854;SDS011;5987;53.140;8.904;2023-05-10T02:49:57;2.97;;;2.50;;
11854;SDS011;5987;53.140;8.904;2023-05-10T02:53:03;3.87;;;2.53;;
11854;SDS011;5987;53.140;8.904;2023-05-10T02:56:15;6.17;;;2.80;;
11854;SDS011;5987;53.140;8.904;2023-05-10T02:59:27;3.43;;;2.40;;
11854;SDS011;5987;53.140;8.904;2023-05-10T03:02:31;3.23;;;2.37;;
11854;SDS011;5987;53.140;8.904;2023-05-10T03:05:34;3.63;;;2.47;;
11854;SDS011;5987;53.140;8.904;2023-05-10T03:08:39;4.93;;;2.90;;
11854;SDS011;5987;53.140;8.904;2023-05-10T03:11:47;3.60;;;2.77;;
11854;SDS011;5987;53.140;8.904;2023-05-10T03:15:03;4.07;;;3.03;;
11854;SDS011;5987;53.140;8.904;2023-05-10T03:18:17;3.07;;;2.43;;
11854;SDS011;5987;53.140;8.904;2023-05-10T03:21:30;4.47;;;3.27;;
11854;SDS011;5987;53.140;8.904;2023-05-10T03:24:36;3.77;;;2.60;;
11854;SDS011;5987;53.140;8.904;2023-05-10T03:27:43;4.13;;;2.90;;
11854;SDS011;5987;53.140;8.904;2023-05-10T03:30:48;3.03;;;2.50;;
11854;SDS011;5987;53.140;8.904;2023-05-10T03:33:55;2.93;;;2.73;;
11854;SDS011;5987;53.140;8.904;2023-05-10T03:36:58;5.00;;;2.63;;
11854;SDS011;5987;53.140;8.904;2023-05-10T03:40:03;3.40;;;2.93;;
11854;SDS011;5987;53.140;8.904;2023-05-10T03:43:09;3.57;;;2.80;;
11854;SDS011;5987;53.140;8.904;2023-05-10T03:46:12;4.07;;;3.37;;
11854;SDS011;5987;53.140;8.904;2023-05-10T03:49:16;3.77;;;2.97;;
11854;SDS011;5987;53.140;8.904;2023-05-10T03:52:19;3.83;;;2.57;;
11854;SDS011;5987;53.140;8.904;2023-05-10T03:55:24;16.67;;;3.30;;
11854;SDS011;5987;53.140;8.904;2023-05-10T03:58:28;5.80;;;3.13;;
11854;SDS011;5987;53.140;8.904;2023-05-10T04:01:32;8.13;;;3.37;;
11854;SDS011;5987;53.140;8.904;2023-05-10T04:04:35;7.40;;;3.47;;
11854;SDS011;5987;53.140;8.904;2023-05-10T04:07:39;4.03;;;2.90;;
11854;SDS011;5987;53.140;8.904;2023-05-10T04:10:44;3.97;;;3.47;;
11854;SDS011;5987;53.140;8.904;2023-05-10T04:13:47;4.03;;;2.90;;
11854;SDS011;5987;53.140;8.904;2023-05-10T04:16:51;5.00;;;3.50;;
11854;SDS011;5987;53.140;8.904;2023-05-10T04:19:55;4.83;;;3.47;;
11854;SDS011;5987;53.140;8.904;2023-05-10T04:22:59;3.97;;;3.33;;
11854;SDS011;5987;53.140;8.904;2023-05-10T04:26:04;7.80;;;3.97;;
11854;SDS011;5987;53.140;8.904;2023-05-10T04:29:08;4.87;;;3.40;;
11854;SDS011;5987;53.140;8.904;2023-05-10T04:32:11;5.73;;;3.47;;
11854;SDS011;5987;53.140;8.904;2023-05-10T04:35:15;5.57;;;3.63;;
11854;SDS011;5987;53.140;8.904;2023-05-10T04:38:18;4.97;;;3.43;;
11854;SDS011;5987;53.140;8.904;2023-05-10T04:41:23;4.90;;;3.77;;
11854;SDS011;5987;53.140;8.904;2023-05-10T04:44:27;4.23;;;3.83;;
11854;SDS011;5987;53.140;8.904;2023-05-10T04:47:31;6.97;;;3.33;;
11854;SDS011;5987;53.140;8.904;2023-05-10T04:50:35;4.33;;;3.87;;
11854;SDS011;5987;53.140;8.904;2023-05-10T04:53:39;5.43;;;3.97;;
11854;SDS011;5987;53.140;8.904;2023-05-10T04:56:52;7.40;;;4.10;;
11854;SDS011;5987;53.140;8.904;2023-05-10T04:59:56;8.70;;;4.20;;
11854;SDS011;5987;53.140;8.904;2023-05-10T05:03:00;6.20;;;4.70;;
11854;SDS011;5987;53.140;8.904;2023-05-10T05:06:03;6.47;;;4.50;;
11854;SDS011;5987;53.140;8.904;2023-05-10T05:09:07;4.07;;;3.67;;
11854;SDS011;5987;53.140;8.904;2023-05-10T05:12:12;7.80;;;5.10;;
11854;SDS011;5987;53.140;8.904;2023-05-10T05:15:16;5.40;;;4.70;;
11854;SDS011;5987;53.140;8.904;2023-05-10T05:18:20;6.60;;;5.20;;
11854;SDS011;5987;53.140;8.904;2023-05-10T05:21:23;6.67;;;5.20;;
11854;SDS011;5987;53.140;8.904;2023-05-10T05:24:28;5.93;;;4.43;;
11854;SDS011;5987;53.140;8.904;2023-05-10T05:27:37;7.07;;;4.90;;
11854;SDS011;5987;53.140;8.904;2023-05-10T05:30:40;7.97;;;5.67;;
11854;SDS011;5987;53.140;8.904;2023-05-10T05:33:44;7.97;;;5.17;;
11854;SDS011;5987;53.140;8.904;2023-05-10T05:36:47;6.90;;;5.50;;
11854;SDS011;5987;53.140;8.904;2023-05-10T05:39:51;6.87;;;5.80;;
11854;SDS011;5987;53.140;8.904;2023-05-10T05:42:57;8.03;;;5.90;;
11854;SDS011;5987;53.140;8.904;2023-05-10T05:46:01;8.50;;;6.37;;
11854;SDS011;5987;53.140;8.904;2023-05-10T05:49:05;6.80;;;5.87;;
11854;SDS011;5987;53.140;8.904;2023-05-10T05:52:08;9.53;;;6.00;;
11854;SDS011;5987;53.140;8.904;2023-05-10T05:55:12;8.30;;;6.10;;
11854;SDS011;5987;53.140;8.904;2023-05-10T05:58:17;6.83;;;5.73;;
11854;SDS011;5987;53.140;8.904;2023-05-10T06:01:21;7.20;;;6.43;;
11854;SDS011;5987;53.140;8.904;2023-05-10T06:04:43;7.20;;;5.90;;
11854;SDS011;5987;53.140;8.904;2023-05-10T06:07:46;7.23;;;6.23;;
11854;SDS011;5987;53.140;8.904;2023-05-10T06:10:50;7.13;;;5.27;;
11854;SDS011;5987;53.140;8.904;2023-05-10T06:13:55;7.87;;;5.60;;
11854;SDS011;5987;53.140;8.904;2023-05-10T06:16:59;7.00;;;5.77;;
11854;SDS011;5987;53.140;8.904;2023-05-10T06:20:06;9.57;;;6.67;;
11854;SDS011;5987;53.140;8.904;2023-05-10T06:23:11;7.90;;;6.13;;
11854;SDS011;5987;53.140;8.904;2023-05-10T06:26:14;6.90;;;6.20;;
11854;SDS011;5987;53.140;8.904;2023-05-10T06:29:19;8.03;;;7.10;;
11854;SDS011;5987;53.140;8.904;2023-05-10T06:32:24;7.63;;;6.53;;
11854;SDS011;5987;53.140;8.904;2023-05-10T06:35:28;8.87;;;6.90;;
11854;SDS011;5987;53.140;8.904;2023-05-10T06:38:32;10.40;;;8.17;;
11854;SDS011;5987;53.140;8.904;2023-05-10T06:41:36;8.67;;;7.13;;
11854;SDS011;5987;53.140;8.904;2023-05-10T06:44:41;10.40;;;7.87;;
11854;SDS011;5987;53.140;8.904;2023-05-10T06:47:45;11.27;;;7.50;;
11854;SDS011;5987;53.140;8.904;2023-05-10T06:50:48;9.93;;;7.27;;
11854;SDS011;5987;53.140;8.904;2023-05-10T06:53:52;10.20;;;7.93;;
11854;SDS011;5987;53.140;8.904;2023-05-10T06:56:55;10.07;;;8.17;;
11854;SDS011;5987;53.140;8.904;2023-05-10T07:00:01;11.17;;;7.53;;
11854;SDS011;5987;53.140;8.904;2023-05-10T07:03:06;12.17;;;8.70;;
11854;SDS011;5987;53.140;8.904;2023-05-10T07:06:10;11.57;;;8.17;;
11854;SDS011;5987;53.140;8.904;2023-05-10T07:09:33;10.80;;;9.00;;
11854;SDS011;5987;53.140;8.904;2023-05-10T07:12:37;11.50;;;8.13;;
11854;SDS011;5987;53.140;8.904;2023-05-10T07:15:42;10.20;;;8.33;;
11854;SDS011;5987;53.140;8.904;2023-05-10T07:18:46;10.67;;;8.60;;
11854;SDS011;5987;53.140;8.904;2023-05-10T07:21:51;12.30;;;9.53;;
11854;SDS011;5987;53.140;8.904;2023-05-10T07:24:55;14.53;;;9.70;;
11854;SDS011;5987;53.140;8.904;2023-05-10T07:27:58;13.13;;;9.47;;
11854;SDS011;5987;53.140;8.904;2023-05-10T07:31:03;11.83;;;9.73;;
11854;SDS011;5987;53.140;8.904;2023-05-10T07:34:07;12.03;;;9.77;;
11854;SDS011;5987;53.140;8.904;2023-05-10T07:37:11;12.33;;;9.60;;
11854;SDS011;5987;53.140;8.904;2023-05-10T07:40:16;13.43;;;9.93;;
11854;SDS011;5987;53.140;8.904;2023-05-10T07:43:20;14.33;;;10.43;;
11854;SDS011;5987;53.140;8.904;2023-05-10T07:46:25;13.93;;;10.40;;
11854;SDS011;5987;53.140;8.904;2023-05-10T07:49:28;15.77;;;10.13;;
11854;SDS011;5987;53.140;8.904;2023-05-10T07:52:32;13.10;;;10.57;;
11854;SDS011;5987;53.140;8.904;2023-05-10T07:55:36;13.73;;;10.93;;
11854;SDS011;5987;53.140;8.904;2023-05-10T07:58:39;17.27;;;12.43;;
11854;SDS011;5987;53.140;8.904;2023-05-10T08:01:44;13.70;;;11.60;;
11854;SDS011;5987;53.140;8.904;2023-05-10T08:04:48;14.27;;;10.60;;
11854;SDS011;5987;53.140;8.904;2023-05-10T08:07:52;13.37;;;10.67;;
11854;SDS011;5987;53.140;8.904;2023-05-10T08:10:55;13.37;;;10.37;;
11854;SDS011;5987;53.140;8.904;2023-05-10T08:13:59;12.27;;;10.63;;
11854;SDS011;5987;53.140;8.904;2023-05-10T08:17:04;13.13;;;10.80;;
11854;SDS011;5987;53.140;8.904;2023-05-10T08:20:08;17.33;;;9.93;;
11854;SDS011;5987;53.140;8.904;2023-05-10T08:23:14;14.33;;;9.90;;
11854;SDS011;5987;53.140;8.904;2023-05-10T08:26:17;13.10;;;10.30;;
11854;SDS011;5987;53.140;8.904;2023-05-10T08:29:22;14.67;;;8.97;;
11854;SDS011;5987;53.140;8.904;2023-05-10T08:32:30;10.97;;;8.50;;
11854;SDS011;5987;53.140;8.904;2023-05-10T08:35:34;11.77;;;8.43;;
11854;SDS011;5987;53.140;8.904;2023-05-10T08:38:38;8.57;;;7.67;;
11854;SDS011;5987;53.140;8.904;2023-05-10T08:41:41;6.63;;;5.90;;
11854;SDS011;5987;53.140;8.904;2023-05-10T08:44:49;7.93;;;5.53;;
11854;SDS011;5987;53.140;8.904;2023-05-10T08:47:56;6.27;;;4.03;;
11854;SDS011;5987;53.140;8.904;2023-05-10T08:51:00;4.40;;;3.73;;
11854;SDS011;5987;53.140;8.904;2023-05-10T08:54:06;4.63;;;3.80;;
11854;SDS011;5987;53.140;8.904;2023-05-10T08:57:10;3.90;;;3.30;;
11854;SDS011;5987;53.140;8.904;2023-05-10T09:00:14;4.00;;;3.33;;
11854;SDS011;5987;53.140;8.904;2023-05-10T09:03:22;4.43;;;3.70;;
11854;SDS011;5987;53.140;8.904;2023-05-10T09:06:25;4.20;;;3.80;;
11854;SDS011;5987;53.140;8.904;2023-05-10T09:09:30;5.93;;;4.07;;
11854;SDS011;5987;53.140;8.904;2023-05-10T09:12:34;5.43;;;3.83;;
11854;SDS011;5987;53.140;8.904;2023-05-10T09:15:38;5.57;;;3.47;;
11854;SDS011;5987;53.140;8.904;2023-05-10T09:18:44;3.87;;;3.00;;
11854;SDS011;5987;53.140;8.904;2023-05-10T09:21:47;5.80;;;3.33;;
11854;SDS011;5987;53.140;8.904;2023-05-10T09:25:03;5.83;;;3.47;;
11854;SDS011;5987;53.140;8.904;2023-05-10T09:28:08;4.07;;;3.60;;
11854;SDS011;5987;53.140;8.904;2023-05-10T09:31:13;1.87;;;1.60;;
11854;SDS011;5987;53.140;8.904;2023-05-10T09:34:19;2.97;;;1.77;;
11854;SDS011;5987;53.140;8.904;2023-05-10T09:37:30;2.93;;;1.60;;
11854;SDS011;5987;53.140;8.904;2023-05-10T09:40:34;3.73;;;1.50;;
11854;SDS011;5987;53.140;8.904;2023-05-10T09:43:38;2.47;;;1.50;;
11854;SDS011;5987;53.140;8.904;2023-05-10T09:46:42;2.07;;;1.60;;
11854;SDS011;5987;53.140;8.904;2023-05-10T09:49:53;3.07;;;1.87;;
11854;SDS011;5987;53.140;8.904;2023-05-10T09:53:00;1.37;;;1.27;;
11854;SDS011;5987;53.140;8.904;2023-05-10T09:56:05;2.27;;;1.60;;
11854;SDS011;5987;53.140;8.904;2023-05-10T09:59:09;3.07;;;2.00;;
11854;SDS011;5987;53.140;8.904;2023-05-10T10:02:14;2.43;;;2.13;;
11854;SDS011;5987;53.140;8.904;2023-05-10T10:05:20;5.80;;;3.03;;
11854;SDS011;5987;53.140;8.904;2023-05-10T10:08:30;3.10;;;2.67;;
11854;SDS011;5987;53.140;8.904;2023-05-10T10:11:34;3.53;;;3.23;;
11854;SDS011;5987;53.140;8.904;2023-05-10T10:14:40;3.50;;;3.20;;
11854;SDS011;5987;53.140;8.904;2023-05-10T10:17:44;5.23;;;3.90;;
11854;SDS011;5987;53.140;8.904;2023-05-10T10:20:50;4.60;;;4.20;;
11854;SDS011;5987;53.140;8.904;2023-05-10T10:23:56;4.30;;;3.90;;
11854;SDS011;5987;53.140;8.904;2023-05-10T10:27:01;4.87;;;4.20;;
11854;SDS011;5987;53.140;8.904;2023-05-10T10:30:23;5.00;;;4.57;;
11854;SDS011;5987;53.140;8.904;2023-05-10T10:33:40;5.90;;;5.33;;
11854;SDS011;5987;53.140;8.904;2023-05-10T10:37:05;5.37;;;4.87;;
11854;SDS011;5987;53.140;8.904;2023-05-10T10:40:25;6.27;;;5.00;;
11854;SDS011;5987;53.140;8.904;2023-05-10T10:43:34;9.13;;;5.23;;
11854;SDS011;5987;53.140;8.904;2023-05-10T10:46:53;3.83;;;3.53;;
11854;SDS011;5987;53.140;8.904;2023-05-10T10:50:03;3.53;;;3.23;;
11854;SDS011;5987;53.140;8.904;2023-05-10T10:53:11;3.40;;;3.10;;
11854;SDS011;5987;53.140;8.904;2023-05-10T10:56:15;6.90;;;3.03;;
11854;SDS011;5987;53.140;8.904;2023-05-10T10:59:26;2.77;;;2.57;;
11854;SDS011;5987;53.140;8.904;2023-05-10T11:02:33;3.40;;;3.00;;
11854;SDS011;5987;53.140;8.904;2023-05-10T11:05:47;3.37;;;2.50;;
11854;SDS011;5987;53.140;8.904;2023-05-10T11:08:54;2.77;;;2.57;;
11854;SDS011;5987;53.140;8.904;2023-05-10T11:11:58;3.47;;;3.17;;
11854;SDS011;5987;53.140;8.904;2023-05-10T11:15:02;2.93;;;2.60;;
11854;SDS011;5987;53.140;8.904;2023-05-10T11:18:17;3.77;;;2.90;;
11854;SDS011;5987;53.140;8.904;2023-05-10T11:21:23;3.23;;;2.90;;
11854;SDS011;5987;53.140;8.904;2023-05-10T11:24:28;3.10;;;2.53;;
11854;SDS011;5987;53.140;8.904;2023-05-10T11:27:32;3.73;;;2.70;;
11854;SDS011;5987;53.140;8.904;2023-05-10T11:30:41;3.63;;;2.90;;
11854;SDS011;5987;53.140;8.904;2023-05-10T11:33:47;4.87;;;2.67;;
11854;SDS011;5987;53.140;8.904;2023-05-10T11:36:52;3.93;;;2.97;;
11854;SDS011;5987;53.140;8.904;2023-05-10T11:39:59;3.10;;;2.33;;
11854;SDS011;5987;53.140;8.904;2023-05-10T11:43:03;3.03;;;2.77;;
11854;SDS011;5987;53.140;8.904;2023-05-10T11:46:08;2.93;;;2.73;;
11854;SDS011;5987;53.140;8.904;2023-05-10T11:49:15;3.50;;;3.20;;
11854;SDS011;5987;53.140;8.904;2023-05-10T11:52:18;3.27;;;3.00;;
11854;SDS011;5987;53.140;8.904;2023-05-10T11:55:24;3.07;;;2.87;;
11854;SDS011;5987;53.140;8.904;2023-05-10T11:58:27;2.90;;;2.70;;
11854;SDS011;5987;53.140;8.904;2023-05-10T12:01:31;3.97;;;3.67;;
11854;SDS011;5987;53.140;8.904;2023-05-10T12:04:35;3.37;;;3.17;;
11854;SDS011;5987;53.140;8.904;2023-05-10T12:07:39;2.77;;;2.43;;
11854;SDS011;5987;53.140;8.904;2023-05-10T12:10:44;2.40;;;2.20;;
11854;SDS011;5987;53.140;8.904;2023-05-10T12:13:47;2.43;;;2.30;;
11854;SDS011;5987;53.140;8.904;2023-05-10T12:16:51;2.43;;;1.63;;
11854;SDS011;5987;53.140;8.904;2023-05-10T12:19:58;0.93;;;0.90;;
11854;SDS011;5987;53.140;8.904;2023-05-10T12:23:15;0.83;;;0.83;;
11854;SDS011;5987;53.140;8.904;2023-05-10T12:26:22;0.80;;;0.70;;
11854;SDS011;5987;53.140;8.904;2023-05-10T12:29:29;0.90;;;0.90;;
11854;SDS011;5987;53.140;8.904;2023-05-10T12:32:39;4.13;;;1.27;;
11854;SDS011;5987;53.140;8.904;2023-05-10T12:35:44;3.17;;;1.93;;
11854;SDS011;5987;53.140;8.904;2023-05-10T12:38:49;1.73;;;1.10;;
11854;SDS011;5987;53.140;8.904;2023-05-10T12:41:55;1.37;;;1.13;;
11854;SDS011;5987;53.140;8.904;2023-05-10T12:44:59;3.37;;;1.30;;
11854;SDS011;5987;53.140;8.904;2023-05-10T12:48:02;1.80;;;1.50;;
11854;SDS011;5987;53.140;8.904;2023-05-10T12:51:06;1.50;;;0.80;;
11854;SDS011;5987;53.140;8.904;2023-05-10T12:54:13;0.50;;;0.50;;
11854;SDS011;5987;53.140;8.904;2023-05-10T12:57:18;0.80;;;0.60;;
11854;SDS011;5987;53.140;8.904;2023-05-10T13:00:23;1.63;;;0.70;;
11854;SDS011;5987;53.140;8.904;2023-05-10T13:03:27;1.37;;;0.70;;
11854;SDS011;5987;53.140;8.904;2023-05-10T13:06:31;0.87;;;0.83;;
11854;SDS011;5987;53.140;8.904;2023-05-10T13:09:36;0.80;;;0.80;;
11854;SDS011;5987;53.140;8.904;2023-05-10T13:12:41;1.53;;;1.40;;
11854;SDS011;5987;53.140;8.904;2023-05-10T13:15:44;2.07;;;1.40;;
11854;SDS011;5987;53.140;8.904;2023-05-10T13:18:48;2.87;;;2.30;;
11854;SDS011;5987;53.140;8.904;2023-05-10T13:21:52;2.57;;;2.27;;
11854;SDS011;5987;53.140;8.904;2023-05-10T13:24:56;3.17;;;2.40;;
11854;SDS011;5987;53.140;8.904;2023-05-10T13:28:01;2.73;;;2.53;;
11854;SDS011;5987;53.140;8.904;2023-05-10T13:31:05;3.07;;;2.87;;
11854;SDS011;5987;53.140;8.904;2023-05-10T13:34:08;3.90;;;3.50;;
11854;SDS011;5987;53.140;8.904;2023-05-10T13:37:12;5.27;;;3.37;;
11854;SDS011;5987;53.140;8.904;2023-05-10T13:40:16;6.00;;;4.80;;
11854;SDS011;5987;53.140;8.904;2023-05-10T13:43:21;5.10;;;4.50;;
11854;SDS011;5987;53.140;8.904;2023-05-10T13:46:24;4.97;;;4.47;;
11854;SDS011;5987;53.140;8.904;2023-05-10T13:49:28;5.57;;;4.90;;
11854;SDS011;5987;53.140;8.904;2023-05-10T13:52:32;5.57;;;4.80;;
11854;SDS011;5987;53.140;8.904;2023-05-10T13:55:35;5.13;;;4.63;;
11854;SDS011;5987;53.140;8.904;2023-05-10T13:58:40;6.43;;;5.07;;
11854;SDS011;5987;53.140;8.904;2023-05-10T14:01:44;7.03;;;5.67;;
11854;SDS011;5987;53.140;8.904;2023-05-10T14:04:48;5.23;;;4.73;;
11854;SDS011;5987;53.140;8.904;2023-05-10T14:07:51;5.60;;;4.60;;
11854;SDS011;5987;53.140;8.904;2023-05-10T14:10:55;5.83;;;5.30;;
11854;SDS011;5987;53.140;8.904;2023-05-10T14:14:00;5.10;;;4.47;;
11854;SDS011;5987;53.140;8.904;2023-05-10T14:17:04;5.47;;;4.80;;
11854;SDS011;5987;53.140;8.904;2023-05-10T14:20:09;6.17;;;4.93;;
11854;SDS011;5987;53.140;8.904;2023-05-10T14:23:14;6.77;;;5.03;;
11854;SDS011;5987;53.140;8.904;2023-05-10T14:26:17;4.67;;;4.07;;
11854;SDS011;5987;53.140;8.904;2023-05-10T14:29:23;5.37;;;4.33;;
11854;SDS011;5987;53.140;8.904;2023-05-10T14:32:26;4.50;;;3.63;;
11854;SDS011;5987;53.140;8.904;2023-05-10T14:35:30;4.27;;;3.27;;
11854;SDS011;5987;53.140;8.904;2023-05-10T14:38:34;3.43;;;3.03;;
11854;SDS011;5987;53.140;8.904;2023-05-10T14:41:37;3.50;;;2.57;;
11854;SDS011;5987;53.140;8.904;2023-05-10T14:44:43;3.47;;;2.30;;
11854;SDS011;5987;53.140;8.904;2023-05-10T14:47:47;2.60;;;2.40;;
11854;SDS011;5987;53.140;8.904;2023-05-10T14:50:51;3.30;;;2.63;;
11854;SDS011;5987;53.140;8.904;2023-05-10T14:53:55;2.83;;;2.33;;
11854;SDS011;5987;53.140;8.904;2023-05-10T14:56:58;2.73;;;2.10;;
11854;SDS011;5987;53.140;8.904;2023-05-10T15:00:04;2.17;;;1.85;;
11854;SDS011;5987;53.140;8.904;2023-05-10T15:03:09;2.13;;;1.93;;
11854;SDS011;5987;53.140;8.904;2023-05-10T15:06:14;1.60;;;1.43;;
11854;SDS011;5987;53.140;8.904;2023-05-10T15:09:18;1.87;;;1.67;;
11854;SDS011;5987;53.140;8.904;2023-05-10T15:12:22;2.00;;;1.67;;
11854;SDS011;5987;53.140;8.904;2023-05-10T15:15:28;2.73;;;2.17;;
11854;SDS011;5987;53.140;8.904;2023-05-10T15:18:32;1.80;;;1.10;;
11854;SDS011;5987;53.140;8.904;2023-05-10T15:21:36;1.77;;;1.20;;
11854;SDS011;5987;53.140;8.904;2023-05-10T15:24:40;1.83;;;1.53;;
11854;SDS011;5987;53.140;8.904;2023-05-10T15:27:44;2.43;;;1.97;;
11854;SDS011;5987;53.140;8.904;2023-05-10T15:30:48;1.73;;;1.33;;
11854;SDS011;5987;53.140;8.904;2023-05-10T15:33:54;1.67;;;1.30;;
11854;SDS011;5987;53.140;8.904;2023-05-10T15:37:01;1.70;;;1.60;;
11854;SDS011;5987;53.140;8.904;2023-05-10T15:40:05;1.40;;;1.30;;
11854;SDS011;5987;53.140;8.904;2023-05-10T15:43:09;1.80;;;1.57;;
11854;SDS011;5987;53.140;8.904;2023-05-10T15:46:14;1.97;;;1.70;;
11854;SDS011;5987;53.140;8.904;2023-05-10T15:49:18;1.90;;;1.50;;
11854;SDS011;5987;53.140;8.904;2023-05-10T15:52:21;1.10;;;1.00;;
11854;SDS011;5987;53.140;8.904;2023-05-10T15:55:25;1.43;;;1.30;;
11854;SDS011;5987;53.140;8.904;2023-05-10T15:58:29;4.33;;;1.50;;
11854;SDS011;5987;53.140;8.904;2023-05-10T16:01:34;1.20;;;1.10;;
11854;SDS011;5987;53.140;8.904;2023-05-10T16:04:38;2.63;;;1.73;;
11854;SDS011;5987;53.140;8.904;2023-05-10T16:07:41;1.60;;;1.50;;
11854;SDS011;5987;53.140;8.904;2023-05-10T16:10:45;4.10;;;1.30;;
11854;SDS011;5987;53.140;8.904;2023-05-10T16:13:49;1.53;;;1.43;;
11854;SDS011;5987;53.140;8.904;2023-05-10T16:16:54;1.60;;;1.50;;
11854;SDS011;5987;53.140;8.904;2023-05-10T16:19:58;1.50;;;1.27;;
11854;SDS011;5987;53.140;8.904;2023-05-10T16:23:02;1.63;;;1.30;;
11854;SDS011;5987;53.140;8.904;2023-05-10T16:26:08;2.03;;;1.30;;
11854;SDS011;5987;53.140;8.904;2023-05-10T16:29:11;1.70;;;1.60;;
11854;SDS011;5987;53.140;8.904;2023-05-10T16:32:16;2.17;;;1.73;;
11854;SDS011;5987;53.140;8.904;2023-05-10T16:35:19;1.93;;;1.73;;
11854;SDS011;5987;53.140;8.904;2023-05-10T16:38:24;1.80;;;1.70;;
11854;SDS011;5987;53.140;8.904;2023-05-10T16:41:27;2.00;;;1.80;;
11854;SDS011;5987;53.140;8.904;2023-05-10T16:44:34;3.17;;;2.57;;
11854;SDS011;5987;53.140;8.904;2023-05-10T16:47:39;2.47;;;2.27;;
11854;SDS011;5987;53.140;8.904;2023-05-10T16:50:43;3.60;;;2.20;;
11854;SDS011;5987;53.140;8.904;2023-05-10T16:53:47;2.67;;;2.47;;
11854;SDS011;5987;53.140;8.904;2023-05-10T16:56:50;2.80;;;2.60;;
11854;SDS011;5987;53.140;8.904;2023-05-10T16:59:54;4.87;;;3.30;;
11854;SDS011;5987;53.140;8.904;2023-05-10T17:02:59;3.00;;;2.60;;
11854;SDS011;5987;53.140;8.904;2023-05-10T17:06:04;3.20;;;2.83;;
11854;SDS011;5987;53.140;8.904;2023-05-10T17:09:08;3.17;;;2.63;;
11854;SDS011;5987;53.140;8.904;2023-05-10T17:12:12;3.27;;;2.97;;
11854;SDS011;5987;53.140;8.904;2023-05-10T17:15:15;4.03;;;2.63;;
11854;SDS011;5987;53.140;8.904;2023-05-10T17:18:22;3.17;;;2.27;;
11854;SDS011;5987;53.140;8.904;2023-05-10T17:21:28;2.27;;;2.07;;
11854;SDS011;5987;53.140;8.904;2023-05-10T17:24:33;2.73;;;2.37;;
11854;SDS011;5987;53.140;8.904;2023-05-10T17:27:37;2.43;;;2.17;;
11854;SDS011;5987;53.140;8.904;2023-05-10T17:30:41;2.60;;;2.37;;
11854;SDS011;5987;53.140;8.904;2023-05-10T17:33:46;2.73;;;2.27;;
11854;SDS011;5987;53.140;8.904;2023-05-10T17:36:49;2.67;;;2.47;;
11854;SDS011;5987;53.140;8.904;2023-05-10T17:39:53;2.23;;;2.03;;
11854;SDS011;5987;53.140;8.904;2023-05-10T17:42:56;2.87;;;2.03;;
11854;SDS011;5987;53.140;8.904;2023-05-10T17:46:00;3.93;;;2.30;;
11854;SDS011;5987;53.140;8.904;2023-05-10T17:49:05;3.77;;;2.23;;
11854;SDS011;5987;53.140;8.904;2023-05-10T17:52:09;2.90;;;2.30;;
11854;SDS011;5987;53.140;8.904;2023-05-10T17:55:13;2.43;;;2.23;;
11854;SDS011;5987;53.140;8.904;2023-05-10T17:58:17;2.50;;;2.30;;
11854;SDS011;5987;53.140;8.904;2023-05-10T18:01:20;4.27;;;2.33;;
11854;SDS011;5987;53.140;8.904;2023-05-10T18:04:25;2.83;;;2.20;;
11854;SDS011;5987;53.140;8.904;2023-05-10T18:07:29;3.93;;;2.63;;
11854;SDS011;5987;53.140;8.904;2023-05-10T18:10:33;3.43;;;2.60;;
11854;SDS011;5987;53.140;8.904;2023-05-10T18:13:41;3.40;;;2.80;;
11854;SDS011;5987;53.140;8.904;2023-05-10T18:16:45;2.97;;;2.13;;
11854;SDS011;5987;53.140;8.904;2023-05-10T18:19:51;2.97;;;2.37;;
11854;SDS011;5987;53.140;8.904;2023-05-10T18:22:55;3.87;;;2.40;;
11854;SDS011;5987;53.140;8.904;2023-05-10T18:25:59;4.60;;;2.80;;
11854;SDS011;5987;53.140;8.904;2023-05-10T18:29:04;2.87;;;2.27;;
11854;SDS011;5987;53.140;8.904;2023-05-10T18:32:07;3.73;;;2.40;;
11854;SDS011;5987;53.140;8.904;2023-05-10T18:35:12;4.27;;;2.30;;
11854;SDS011;5987;53.140;8.904;2023-05-10T18:38:16;2.67;;;2.30;;
11854;SDS011;5987;53.140;8.904;2023-05-10T18:41:20;3.53;;;2.50;;
11854;SDS011;5987;53.140;8.904;2023-05-10T18:44:27;3.33;;;2.70;;
11854;SDS011;5987;53.140;8.904;2023-05-10T18:47:30;3.03;;;2.00;;
11854;SDS011;5987;53.140;8.904;2023-05-10T18:50:35;2.53;;;2.13;;
11854;SDS011;5987;53.140;8.904;2023-05-10T18:53:39;4.03;;;2.63;;
11854;SDS011;5987;53.140;8.904;2023-05-10T18:56:43;3.17;;;2.23;;
11854;SDS011;5987;53.140;8.904;2023-05-10T18:59:47;3.90;;;2.77;;
11854;SDS011;5987;53.140;8.904;2023-05-10T19:02:51;2.97;;;2.00;;